createdAt,value
2022-11-30T00:01:27.336Z,84.97
2022-11-30T00:04:35.499Z,84.54
2022-11-30T00:07:43.977Z,84.26
2022-11-30T00:10:52.122Z,84.92
2022-11-30T00:14:02.453Z,83.96
2022-11-30T00:17:11.195Z,83.33
2022-11-30T00:20:19.465Z,83.84
2022-11-30T00:23:32.224Z,84.17
2022-11-30T00:26:40.535Z,83.81
2022-11-30T00:29:50.399Z,84.54
2022-11-30T00:32:59.232Z,84.73
2022-11-30T00:36:11.682Z,84.67
2022-11-30T00:39:19.968Z,82.55
2022-11-30T00:42:28.241Z,83.40
2022-11-30T00:45:37.884Z,84.04
2022-11-30T00:48:46.321Z,83.34
2022-11-30T00:51:54.575Z,82.79
2022-11-30T00:55:04.249Z,83.15
2022-11-30T00:58:13.311Z,82.92
2022-11-30T01:01:26.146Z,83.23
2022-11-30T01:04:34.432Z,83.76
2022-11-30T01:07:42.665Z,84.42
2022-11-30T01:10:54.206Z,83.21
2022-11-30T01:14:02.735Z,83.87
2022-11-30T01:17:12.531Z,83.16
2022-11-30T01:20:20.855Z,83.22
2022-11-30T01:23:29.118Z,83.05
2022-11-30T01:26:37.563Z,83.14
2022-11-30T01:29:45.839Z,83.82
2022-11-30T01:32:55.425Z,83.49
2022-11-30T01:36:06.531Z,84.11
2022-11-30T01:39:15.017Z,83.05
2022-11-30T01:42:23.269Z,83.03
2022-11-30T01:45:31.523Z,83.34
2022-11-30T01:48:41.552Z,83.53
2022-11-30T01:51:54.592Z,82.83
2022-11-30T01:55:17.231Z,83.63
2022-11-30T01:58:30.534Z,83.71
2022-11-30T02:01:39.071Z,83.68
2022-11-30T02:04:49.392Z,84.12
2022-11-30T02:07:58.042Z,83.76
2022-11-30T02:11:13.409Z,84.59
2022-11-30T02:14:36.205Z,84.87
2022-11-30T02:17:58.232Z,84.24
2022-11-30T02:21:16.778Z,83.65
2022-11-30T02:24:50.847Z,84.06
2022-11-30T02:28:25.815Z,83.51
2022-11-30T02:31:46.101Z,83.38
2022-11-30T02:34:57.580Z,83.45
2022-11-30T02:38:06.785Z,83.14
2022-11-30T02:41:14.927Z,83.67
2022-11-30T02:44:25.621Z,84.15
2022-11-30T02:47:44.875Z,84.01
2022-11-30T02:50:59.040Z,83.92
2022-11-30T02:54:07.478Z,83.70
2022-11-30T02:57:15.673Z,84.35
2022-11-30T03:00:24.152Z,83.40
2022-11-30T03:03:33.711Z,84.06
2022-11-30T03:06:42.158Z,83.60
2022-11-30T03:09:50.436Z,83.81
2022-11-30T03:12:59.146Z,84.19
2022-11-30T03:16:08.501Z,84.55
2022-11-30T03:19:18.048Z,84.60
2022-11-30T03:22:26.480Z,83.76
2022-11-30T03:25:34.654Z,84.03
2022-11-30T03:28:42.808Z,83.52
2022-11-30T03:31:51.008Z,83.81
2022-11-30T03:35:00.796Z,83.78
2022-11-30T03:38:08.951Z,84.25
2022-11-30T03:41:18.837Z,84.37
2022-11-30T03:44:27.077Z,84.57
2022-11-30T03:47:35.249Z,84.40
2022-11-30T03:50:49.619Z,84.65
2022-11-30T03:53:58.032Z,84.68
2022-11-30T03:57:06.186Z,85.76
2022-11-30T04:00:15.787Z,85.55
2022-11-30T04:03:23.984Z,85.32
2022-11-30T04:06:33.527Z,85.45
2022-11-30T04:09:41.683Z,85.05
2022-11-30T04:12:49.832Z,84.17
2022-11-30T04:15:58.454Z,83.98
2022-11-30T04:19:06.761Z,84.05
2022-11-30T04:22:16.381Z,84.09
2022-11-30T04:25:24.726Z,84.47
2022-11-30T04:28:33.240Z,84.75
2022-11-30T04:31:41.555Z,84.46
2022-11-30T04:34:50.061Z,84.01
2022-11-30T04:38:00.196Z,84.50
2022-11-30T04:41:09.964Z,84.62
2022-11-30T04:44:18.567Z,83.92
2022-11-30T04:47:26.793Z,84.36
2022-11-30T04:50:35.362Z,83.76
2022-11-30T04:53:44.957Z,84.03
2022-11-30T04:56:53.121Z,84.38
2022-11-30T05:00:01.496Z,84.07
2022-11-30T05:03:09.775Z,83.93
2022-11-30T05:06:18.131Z,85.36
2022-11-30T05:09:27.903Z,85.55
2022-11-30T05:12:36.783Z,84.88
2022-11-30T05:15:45.994Z,85.03
2022-11-30T05:18:54.219Z,85.07
2022-11-30T05:22:02.573Z,84.76
2022-11-30T05:25:12.488Z,85.33
2022-11-30T05:28:20.820Z,85.28
2022-11-30T05:31:29.228Z,85.12
2022-11-30T05:34:49.717Z,85.28
2022-11-30T05:37:58.839Z,84.92
2022-11-30T05:41:08.659Z,84.10
2022-11-30T05:44:17.174Z,83.89
2022-11-30T05:47:25.740Z,84.19
2022-11-30T05:50:34.225Z,84.61
2022-11-30T05:53:43.003Z,84.95
2022-11-30T05:56:55.181Z,85.10
2022-11-30T06:00:05.109Z,85.30
2022-11-30T06:03:19.992Z,85.51
2022-11-30T06:06:28.454Z,85.83
2022-11-30T06:09:38.032Z,84.75
2022-11-30T06:12:48.672Z,84.84
2022-11-30T06:16:03.346Z,85.06
2022-11-30T06:19:12.002Z,84.58
2022-11-30T06:22:20.405Z,83.29
2022-11-30T06:25:29.321Z,84.82
2022-11-30T06:28:42.156Z,84.95
2022-11-30T06:31:53.921Z,85.54
2022-11-30T06:35:02.402Z,84.51
2022-11-30T06:38:11.304Z,85.41
2022-11-30T06:41:20.666Z,85.52
2022-11-30T06:44:30.681Z,84.34
2022-11-30T06:47:39.471Z,84.33
2022-11-30T06:50:50.218Z,84.07
2022-11-30T06:53:58.731Z,82.74
2022-11-30T06:57:07.423Z,84.30
2022-11-30T07:00:19.038Z,85.18
2022-11-30T07:03:27.476Z,85.22
2022-11-30T07:06:36.064Z,85.23
2022-11-30T07:09:44.426Z,84.74
2022-11-30T07:12:52.762Z,84.23
2022-11-30T07:16:11.182Z,83.84
2022-11-30T07:19:19.953Z,83.69
2022-11-30T07:22:28.303Z,84.17
2022-11-30T07:25:54.155Z,84.14
2022-11-30T07:29:02.590Z,85.07
2022-11-30T07:32:12.242Z,85.26
2022-11-30T07:35:20.663Z,84.62
2022-11-30T07:38:29.027Z,84.19
2022-11-30T07:41:37.273Z,84.08
2022-11-30T07:44:45.763Z,83.33
2022-11-30T07:47:55.708Z,83.81
2022-11-30T07:51:05.305Z,82.77
2022-11-30T07:54:13.511Z,82.77
2022-11-30T07:57:21.821Z,83.26
2022-11-30T08:00:30.133Z,81.87
2022-11-30T08:03:40.113Z,82.63
2022-11-30T08:06:48.398Z,82.99
2022-11-30T08:09:56.580Z,83.12
2022-11-30T08:13:04.917Z,83.34
2022-11-30T08:16:16.407Z,83.00
2022-11-30T08:19:26.247Z,82.59
2022-11-30T08:22:34.627Z,83.15
2022-11-30T08:25:42.916Z,81.97
2022-11-30T08:28:53.661Z,81.82
2022-11-30T08:32:01.937Z,81.53
2022-11-30T08:35:11.859Z,81.92
2022-11-30T08:38:20.038Z,81.65
2022-11-30T08:41:29.595Z,81.55
2022-11-30T08:44:37.881Z,81.93
2022-11-30T08:47:46.108Z,82.00
2022-11-30T08:50:55.685Z,81.33
2022-11-30T08:54:03.964Z,82.64
2022-11-30T08:57:12.598Z,82.56
2022-11-30T09:00:22.306Z,82.80
2022-11-30T09:03:30.592Z,82.97
2022-11-30T09:06:40.223Z,82.47
2022-11-30T09:09:48.535Z,82.27
2022-11-30T09:12:56.842Z,82.04
2022-11-30T09:16:06.172Z,81.64
2022-11-30T09:19:14.605Z,81.92
2022-11-30T09:22:24.395Z,81.68
2022-11-30T09:25:32.676Z,81.80
2022-11-30T09:28:41.522Z,81.68
2022-11-30T09:31:50.230Z,80.90
2022-11-30T09:34:58.546Z,82.33
2022-11-30T09:38:08.252Z,82.17
2022-11-30T09:41:44.662Z,82.36
2022-11-30T09:45:03.486Z,81.29
2022-11-30T09:48:52.160Z,81.72
2022-11-30T09:52:05.322Z,81.04
2022-11-30T09:55:25.589Z,79.34
2022-11-30T09:58:47.283Z,80.71
2022-11-30T10:01:57.336Z,80.82
2022-11-30T10:05:14.971Z,79.86
2022-11-30T10:08:51.102Z,79.47
2022-11-30T10:12:07.043Z,80.14
2022-11-30T10:15:33.500Z,79.94
2022-11-30T10:18:56.171Z,80.48
2022-11-30T10:22:23.144Z,79.22
2022-11-30T10:25:45.393Z,78.87
2022-11-30T10:28:59.942Z,79.68
2022-11-30T10:32:19.747Z,80.12
2022-11-30T10:35:38.631Z,79.44
2022-11-30T10:38:52.170Z,79.06
2022-11-30T10:42:09.944Z,79.70
2022-11-30T10:45:23.941Z,79.38
2022-11-30T10:48:41.538Z,79.40
2022-11-30T10:51:57.640Z,78.57
2022-11-30T10:55:18.840Z,78.07
2022-11-30T10:58:34.108Z,78.06
2022-11-30T11:01:44.278Z,78.59
2022-11-30T11:05:15.597Z,77.97
2022-11-30T11:08:27.064Z,78.83
2022-11-30T11:11:39.993Z,79.26
2022-11-30T11:14:48.417Z,79.67
2022-11-30T11:18:23.868Z,78.62
2022-11-30T11:21:32.130Z,78.63
2022-11-30T11:24:40.656Z,77.94
2022-11-30T11:27:57.063Z,78.08
2022-11-30T11:31:20.204Z,77.77
2022-11-30T11:34:35.583Z,77.69
2022-11-30T11:37:53.033Z,77.00
2022-11-30T11:41:05.548Z,76.79
2022-11-30T11:44:23.132Z,75.35
2022-11-30T11:47:40.477Z,77.55
2022-11-30T11:51:06.676Z,76.74
2022-11-30T11:54:25.752Z,76.64
2022-11-30T11:57:43.634Z,77.53
2022-11-30T12:01:16.850Z,77.24
2022-11-30T12:04:46.621Z,77.28
2022-11-30T12:08:08.701Z,77.61
2022-11-30T12:11:21.092Z,78.00
2022-11-30T12:14:33.529Z,77.96
2022-11-30T12:17:56.826Z,77.61
2022-11-30T12:21:15.168Z,77.72
2022-11-30T12:25:14.058Z,77.50
2022-11-30T12:28:32.601Z,77.04
2022-11-30T12:31:51.826Z,77.39
2022-11-30T12:35:27.068Z,77.29
2022-11-30T12:38:48.990Z,77.37
2022-11-30T12:42:08.776Z,77.20
2022-11-30T12:45:27.720Z,77.96
2022-11-30T12:48:48.536Z,78.21
2022-11-30T12:52:20.412Z,77.75
2022-11-30T12:55:40.275Z,78.06
2022-11-30T12:59:02.233Z,78.56
2022-11-30T13:02:42.085Z,78.63
2022-11-30T13:05:57.824Z,78.95
2022-11-30T13:09:18.031Z,77.97
2022-11-30T13:12:36.020Z,78.40
2022-11-30T13:15:47.519Z,78.72
2022-11-30T13:19:02.908Z,78.67
2022-11-30T13:22:23.621Z,77.80
2022-11-30T13:29:50.150Z,79.19
2022-11-30T13:33:49.978Z,79.70
2022-11-30T13:37:06.561Z,78.92
2022-11-30T13:40:23.072Z,79.11
2022-11-30T13:43:37.474Z,78.74
2022-11-30T13:46:51.595Z,78.88
2022-11-30T13:50:07.742Z,79.58
2022-11-30T13:53:34.230Z,80.28
2022-11-30T13:56:48.475Z,79.79
2022-11-30T13:59:58.662Z,80.31
2022-11-30T14:03:26.983Z,81.06
2022-11-30T14:06:50.881Z,80.79
2022-11-30T14:10:00.835Z,80.75
2022-11-30T14:13:29.671Z,81.36
2022-11-30T14:16:43.618Z,81.32
2022-11-30T14:19:56.388Z,81.78
2022-11-30T14:23:09.119Z,81.89
2022-11-30T14:26:24.787Z,82.02
2022-11-30T14:29:40.316Z,81.28
2022-11-30T14:32:56.627Z,80.95
2022-11-30T14:36:08.825Z,81.39
2022-11-30T14:39:34.570Z,80.96
2022-11-30T14:42:50.693Z,81.33
2022-11-30T14:46:05.026Z,81.44
2022-11-30T14:49:19.030Z,81.67
2022-11-30T14:52:53.485Z,81.51
2022-11-30T14:56:16.643Z,81.50
2022-11-30T14:59:46.413Z,81.17
2022-11-30T15:02:55.458Z,81.06
2022-11-30T15:06:07.329Z,81.03
2022-11-30T15:09:20.492Z,80.86
2022-11-30T15:12:31.011Z,81.20
2022-11-30T15:15:41.914Z,81.33
2022-11-30T15:18:55.612Z,81.02
2022-11-30T15:22:04.084Z,81.43
2022-11-30T15:25:14.232Z,81.30
2022-11-30T15:28:30.127Z,81.34
2022-11-30T15:31:43.100Z,82.13
2022-11-30T15:34:57.101Z,81.82
2022-11-30T15:38:09.755Z,81.59
2022-11-30T15:41:22.293Z,81.08
2022-11-30T15:44:45.566Z,82.04
2022-11-30T15:47:56.149Z,81.63
2022-11-30T15:51:04.732Z,81.94
2022-11-30T15:54:13.429Z,82.17
2022-11-30T15:58:00.181Z,81.85
2022-11-30T16:01:13.703Z,82.92
2022-11-30T16:04:22.344Z,82.15
2022-11-30T16:07:34.705Z,82.02
2022-11-30T16:10:43.827Z,82.88
2022-11-30T16:13:53.478Z,82.69
2022-11-30T16:17:07.299Z,83.06
2022-11-30T16:20:18.232Z,83.05
2022-11-30T16:23:27.212Z,82.87
2022-11-30T16:26:50.596Z,82.88
2022-11-30T16:30:01.147Z,83.04
2022-11-30T16:33:15.363Z,83.92
2022-11-30T16:36:23.853Z,83.96
2022-11-30T16:39:32.149Z,84.10
2022-11-30T16:42:40.422Z,82.91
2022-11-30T16:45:52.229Z,82.79
2022-11-30T16:49:01.774Z,83.43
2022-11-30T16:52:18.160Z,82.95
2022-11-30T16:55:31.788Z,83.68
2022-11-30T16:58:46.831Z,83.89
2022-11-30T17:01:59.995Z,83.04
2022-11-30T17:05:23.363Z,82.98
2022-11-30T17:08:38.418Z,83.06
2022-11-30T17:11:54.411Z,83.16
2022-11-30T17:15:34.958Z,83.71
2022-11-30T17:18:52.809Z,83.14
2022-11-30T17:22:01.428Z,83.46
2022-11-30T17:25:17.362Z,83.13
2022-11-30T17:28:26.563Z,83.35
2022-11-30T17:31:35.736Z,83.69
2022-11-30T17:34:46.153Z,82.61
2022-11-30T17:37:56.699Z,83.04
2022-11-30T17:41:06.998Z,84.27
2022-11-30T17:44:17.115Z,83.44
2022-11-30T17:47:26.069Z,83.42
2022-11-30T17:50:39.030Z,83.14
2022-11-30T17:53:47.351Z,83.36
2022-11-30T17:56:59.423Z,83.55
2022-11-30T18:00:12.791Z,83.34
2022-11-30T18:03:21.824Z,83.81
2022-11-30T18:06:33.004Z,83.64
2022-11-30T18:09:43.112Z,83.35
2022-11-30T18:12:52.146Z,84.02
2022-11-30T18:16:11.157Z,84.20
2022-11-30T18:19:19.636Z,83.59
2022-11-30T18:22:32.882Z,83.52
2022-11-30T18:25:43.891Z,84.06
2022-11-30T18:28:54.299Z,83.24
2022-11-30T18:32:02.844Z,83.31
2022-11-30T18:35:11.749Z,83.32
2022-11-30T18:38:21.721Z,82.52
2022-11-30T18:41:30.534Z,82.18
2022-11-30T18:44:38.910Z,83.13
2022-11-30T18:47:47.540Z,82.70
2022-11-30T18:50:55.883Z,81.98
2022-11-30T18:54:08.452Z,81.49
2022-11-30T18:57:16.979Z,82.46
2022-11-30T19:00:26.395Z,82.32
2022-11-30T19:03:34.813Z,82.59
2022-11-30T19:06:44.074Z,82.76
2022-11-30T19:09:53.979Z,83.32
2022-11-30T19:13:04.048Z,82.99
2022-11-30T19:16:15.881Z,82.91
2022-11-30T19:19:24.507Z,81.89
2022-11-30T19:22:33.116Z,82.48
2022-11-30T19:25:43.775Z,81.66
2022-11-30T19:28:56.267Z,81.42
2022-11-30T19:32:04.714Z,81.52
2022-11-30T19:35:13.328Z,81.46
2022-11-30T19:38:21.635Z,82.46
2022-11-30T19:41:31.496Z,82.62
2022-11-30T19:44:40.497Z,82.54
2022-11-30T19:47:48.906Z,82.05
2022-11-30T19:50:57.318Z,82.18
2022-11-30T19:54:07.188Z,82.10
2022-11-30T19:57:17.277Z,82.63
2022-11-30T20:00:25.933Z,82.55
2022-11-30T20:03:35.988Z,82.13
2022-11-30T20:06:44.751Z,81.97
2022-11-30T20:09:53.121Z,81.95
2022-11-30T20:13:03.471Z,82.53
2022-11-30T20:16:14.398Z,82.14
2022-11-30T20:19:22.871Z,81.33
2022-11-30T20:22:31.557Z,81.98
2022-11-30T20:25:39.944Z,82.52
2022-11-30T20:28:52.066Z,82.30
2022-11-30T20:32:00.336Z,82.00
2022-11-30T20:35:10.300Z,82.41
2022-11-30T20:38:18.732Z,82.02
2022-11-30T20:41:28.595Z,82.11
2022-11-30T20:44:38.251Z,81.50
2022-11-30T20:47:46.645Z,81.72
2022-11-30T20:51:22.315Z,81.82
2022-11-30T20:54:24.160Z,81.24
2022-11-30T20:57:33.137Z,82.06
2022-11-30T21:00:43.020Z,81.56
2022-11-30T21:03:51.490Z,82.70
2022-11-30T21:06:59.759Z,82.28
2022-11-30T21:10:12.254Z,82.13
2022-11-30T21:13:20.909Z,82.88
2022-11-30T21:16:30.691Z,82.42
2022-11-30T21:19:42.412Z,82.38
2022-11-30T21:22:51.799Z,82.78
2022-11-30T21:26:05.378Z,82.88
2022-11-30T21:29:16.172Z,81.92
2022-11-30T21:32:26.084Z,82.52
2022-11-30T21:35:34.373Z,82.50
2022-11-30T21:38:44.413Z,82.47
2022-11-30T21:41:53.561Z,82.67
2022-11-30T21:45:01.987Z,82.79
2022-11-30T21:48:11.674Z,82.40
2022-11-30T21:51:22.917Z,82.59
2022-11-30T21:54:31.273Z,82.37
2022-11-30T21:57:39.533Z,82.43
2022-11-30T22:00:55.399Z,81.85
2022-11-30T22:04:07.178Z,82.12
2022-11-30T22:07:15.453Z,82.33
2022-11-30T22:10:23.734Z,82.19
2022-11-30T22:13:32.900Z,81.75
2022-11-30T22:16:41.255Z,81.91
2022-11-30T22:19:51.171Z,83.03
2022-11-30T22:22:59.430Z,81.99
2022-11-30T22:26:16.327Z,82.17
2022-11-30T22:29:25.413Z,81.85
2022-11-30T22:32:33.640Z,82.63
2022-11-30T22:35:43.173Z,82.99
2022-11-30T22:38:56.741Z,82.17
2022-11-30T22:42:05.378Z,83.14
2022-11-30T22:45:13.602Z,83.22
2022-11-30T22:48:21.801Z,83.78
2022-11-30T22:51:34.376Z,82.66
2022-11-30T22:54:42.901Z,82.94
2022-11-30T22:57:51.474Z,83.54
2022-11-30T23:01:07.893Z,83.22
2022-11-30T23:04:19.042Z,83.20
2022-11-30T23:07:32.041Z,82.76
2022-11-30T23:10:40.651Z,82.03
2022-11-30T23:13:49.199Z,82.53
2022-11-30T23:16:57.445Z,82.97
2022-11-30T23:20:07.235Z,82.14
2022-11-30T23:23:16.953Z,82.00
2022-11-30T23:26:28.108Z,81.45
2022-11-30T23:29:37.223Z,82.05
2022-11-30T23:32:45.413Z,82.66
2022-11-30T23:35:53.688Z,82.69
2022-11-30T23:39:06.724Z,83.07
2022-11-30T23:42:15.092Z,82.57
2022-11-30T23:45:23.527Z,82.49
2022-11-30T23:48:32.899Z,83.52
2022-11-30T23:51:41.299Z,83.22
2022-11-30T23:54:51.212Z,82.88
2022-11-30T23:57:59.610Z,83.00
